Aeroporto :
LOGIN :

Iscrizione | Disclaimer

   EN    FR    IT 

 










Sommario :    VFR   VFR Marginale   IFR   IFR Intensivo   IFR Molto Intensivo
Visibilità : 
Base nubi : 
>= 8 km
>= 3000ft
5 / 8 km
1000 / 3000 ft
1500m / 5 km
500 / 1000 ft
800 / 1500m
200 / 500 ft
< 800m
< 200 ft
Simboli :   Temporali  Nebbia  Neve Forte  Precipitazioni Forti  Vento > 20 kt
SIGMETs :   Varie  Temporali  Ghiacco  Turbolenza  Onda orograficha  Ceneri Vulcaniche






- Altitudine del aeroporto : 2945 ft
- Codice IATA : RGS


LEBG - Burgos

ULTIMO METAR :
  • 180600Z VRB02KT 9999 BKN018 02/01 Q1013

METARs OBSOLETI :
  • 180530Z AUTO 33003KT 200V010 9999 FEW015 OVC046 02/01 Q1013
  • 180500Z AUTO 33005KT 300V010 9999 BKN014 BKN021 BKN026 02/01 Q1012
  • 180430Z AUTO 36001KT 9000 -UP SCT017 SCT025 BKN031 02/01 Q1012
  • 180400Z AUTO 31005KT 250V010 9999 SCT028 BKN057 02/01 Q1012

TAF TAF LEBG
Valido dal 18 a 06 ore il 18 a 15 ore UTC


180500Z 1806/1815 VRB05KT 9999 SCT020 BKN040
PROB40
TEMPO 1806/1812 2500 RA BR BKN007
PROB30
TEMPO 1806/1809 0150 FG VV001
BECMG 1809/1811 36010KT



MetMap, La meteo Aeronautica in un colpo d'occhio ! - Copyright ORBIFLY Dicembre 2007 - Disclaimer

ORBIFLY MET'MAP TEAM :

Programmazione e sviluppo : Alexandra Zaïnal
Concezione e sviluppo : Baudouin d'Aumeries
Co-Programmazione e sviluppo : Marc-Olivier Méhu
Supporto tecnico e logistico : Manuel Goepfert
Aiuto per la traduzione : Arnaldo La Scala

Contatto : metmap@orbifly.com




FONTI E CREDITI :

   NOAA